sensor_id;sensor_type;location;lat;lon;timestamp;P1;durP1;ratioP1;P2;durP2;ratioP2
76423;SDS011;65257;52.104;4.268;2023-09-07T00:00:49;10.20;;;6.57;;
76423;SDS011;65257;52.104;4.268;2023-09-07T00:03:14;9.27;;;6.60;;
76423;SDS011;65257;52.104;4.268;2023-09-07T00:05:41;11.05;;;6.40;;
76423;SDS011;65257;52.104;4.268;2023-09-07T00:08:07;10.93;;;6.63;;
76423;SDS011;65257;52.104;4.268;2023-09-07T00:10:33;10.65;;;7.32;;
76423;SDS011;65257;52.104;4.268;2023-09-07T00:13:02;9.65;;;6.93;;
76423;SDS011;65257;52.104;4.268;2023-09-07T00:15:29;11.35;;;7.20;;
76423;SDS011;65257;52.104;4.268;2023-09-07T00:18:07;9.57;;;6.93;;
76423;SDS011;65257;52.104;4.268;2023-09-07T00:20:37;9.43;;;6.68;;
76423;SDS011;65257;52.104;4.268;2023-09-07T00:23:03;10.25;;;6.85;;
76423;SDS011;65257;52.104;4.268;2023-09-07T00:25:29;12.13;;;7.40;;
76423;SDS011;65257;52.104;4.268;2023-09-07T00:27:55;12.85;;;7.30;;
76423;SDS011;65257;52.104;4.268;2023-09-07T00:30:20;11.05;;;7.03;;
76423;SDS011;65257;52.104;4.268;2023-09-07T00:32:46;10.38;;;7.07;;
76423;SDS011;65257;52.104;4.268;2023-09-07T00:35:12;11.50;;;7.50;;
76423;SDS011;65257;52.104;4.268;2023-09-07T00:37:37;9.30;;;7.53;;
76423;SDS011;65257;52.104;4.268;2023-09-07T00:40:12;9.05;;;6.93;;
76423;SDS011;65257;52.104;4.268;2023-09-07T00:42:38;9.55;;;6.97;;
76423;SDS011;65257;52.104;4.268;2023-09-07T00:45:03;9.52;;;7.70;;
76423;SDS011;65257;52.104;4.268;2023-09-07T00:47:31;10.73;;;7.80;;
76423;SDS011;65257;52.104;4.268;2023-09-07T00:50:02;10.43;;;7.45;;
76423;SDS011;65257;52.104;4.268;2023-09-07T00:52:29;13.00;;;7.53;;
76423;SDS011;65257;52.104;4.268;2023-09-07T00:54:56;10.80;;;7.60;;
76423;SDS011;65257;52.104;4.268;2023-09-07T00:57:21;9.95;;;7.32;;
76423;SDS011;65257;52.104;4.268;2023-09-07T00:59:47;11.02;;;7.65;;
76423;SDS011;65257;52.104;4.268;2023-09-07T01:02:13;11.15;;;7.28;;
76423;SDS011;65257;52.104;4.268;2023-09-07T01:04:39;12.45;;;7.82;;
76423;SDS011;65257;52.104;4.268;2023-09-07T01:07:14;8.80;;;6.78;;
76423;SDS011;65257;52.104;4.268;2023-09-07T01:09:56;11.05;;;7.20;;
76423;SDS011;65257;52.104;4.268;2023-09-07T01:12:25;10.82;;;7.00;;
76423;SDS011;65257;52.104;4.268;2023-09-07T01:14:51;12.13;;;8.05;;
76423;SDS011;65257;52.104;4.268;2023-09-07T01:17:38;11.68;;;7.78;;
76423;SDS011;65257;52.104;4.268;2023-09-07T01:20:04;11.55;;;7.68;;
76423;SDS011;65257;52.104;4.268;2023-09-07T01:22:41;10.88;;;8.32;;
76423;SDS011;65257;52.104;4.268;2023-09-07T01:25:13;12.75;;;8.60;;
76423;SDS011;65257;52.104;4.268;2023-09-07T01:27:38;10.23;;;7.25;;
76423;SDS011;65257;52.104;4.268;2023-09-07T01:30:04;11.13;;;7.70;;
76423;SDS011;65257;52.104;4.268;2023-09-07T01:32:32;10.32;;;7.55;;
76423;SDS011;65257;52.104;4.268;2023-09-07T01:35:00;11.05;;;7.90;;
76423;SDS011;65257;52.104;4.268;2023-09-07T01:37:27;11.65;;;7.70;;
76423;SDS011;65257;52.104;4.268;2023-09-07T01:39:52;12.60;;;9.32;;
76423;SDS011;65257;52.104;4.268;2023-09-07T01:42:18;13.40;;;8.63;;
76423;SDS011;65257;52.104;4.268;2023-09-07T01:44:43;10.75;;;8.45;;
76423;SDS011;65257;52.104;4.268;2023-09-07T01:47:11;11.23;;;8.43;;
76423;SDS011;65257;52.104;4.268;2023-09-07T01:49:37;11.68;;;8.73;;
76423;SDS011;65257;52.104;4.268;2023-09-07T01:52:03;13.63;;;8.82;;
76423;SDS011;65257;52.104;4.268;2023-09-07T01:54:29;15.75;;;8.60;;
76423;SDS011;65257;52.104;4.268;2023-09-07T01:56:59;13.38;;;8.50;;
76423;SDS011;65257;52.104;4.268;2023-09-07T01:59:24;12.40;;;9.05;;
76423;SDS011;65257;52.104;4.268;2023-09-07T02:01:52;11.25;;;8.70;;
76423;SDS011;65257;52.104;4.268;2023-09-07T02:04:17;13.13;;;8.48;;
76423;SDS011;65257;52.104;4.268;2023-09-07T02:06:48;11.15;;;8.70;;
76423;SDS011;65257;52.104;4.268;2023-09-07T02:09:14;14.93;;;9.90;;
76423;SDS011;65257;52.104;4.268;2023-09-07T02:11:39;12.00;;;8.60;;
76423;SDS011;65257;52.104;4.268;2023-09-07T02:14:10;13.02;;;8.88;;
76423;SDS011;65257;52.104;4.268;2023-09-07T02:16:36;13.70;;;9.35;;
76423;SDS011;65257;52.104;4.268;2023-09-07T02:19:02;13.02;;;8.55;;
76423;SDS011;65257;52.104;4.268;2023-09-07T02:21:29;13.98;;;9.07;;
76423;SDS011;65257;52.104;4.268;2023-09-07T02:23:54;12.73;;;8.52;;
76423;SDS011;65257;52.104;4.268;2023-09-07T02:26:20;14.52;;;9.52;;
76423;SDS011;65257;52.104;4.268;2023-09-07T02:28:45;14.20;;;9.52;;
76423;SDS011;65257;52.104;4.268;2023-09-07T02:31:11;15.23;;;9.70;;
76423;SDS011;65257;52.104;4.268;2023-09-07T02:33:39;12.93;;;9.30;;
76423;SDS011;65257;52.104;4.268;2023-09-07T02:36:04;14.55;;;9.32;;
76423;SDS011;65257;52.104;4.268;2023-09-07T02:38:32;13.10;;;10.07;;
76423;SDS011;65257;52.104;4.268;2023-09-07T02:40:58;12.75;;;9.07;;
76423;SDS011;65257;52.104;4.268;2023-09-07T02:43:23;13.63;;;9.30;;
76423;SDS011;65257;52.104;4.268;2023-09-07T02:45:52;13.95;;;9.68;;
76423;SDS011;65257;52.104;4.268;2023-09-07T02:48:17;13.40;;;9.05;;
76423;SDS011;65257;52.104;4.268;2023-09-07T02:50:43;15.30;;;10.35;;
76423;SDS011;65257;52.104;4.268;2023-09-07T02:53:13;13.60;;;9.02;;
76423;SDS011;65257;52.104;4.268;2023-09-07T02:55:39;17.38;;;10.55;;
76423;SDS011;65257;52.104;4.268;2023-09-07T02:58:05;13.75;;;9.48;;
76423;SDS011;65257;52.104;4.268;2023-09-07T03:00:33;14.20;;;10.00;;
76423;SDS011;65257;52.104;4.268;2023-09-07T03:03:07;14.57;;;9.57;;
76423;SDS011;65257;52.104;4.268;2023-09-07T03:05:32;13.73;;;9.70;;
76423;SDS011;65257;52.104;4.268;2023-09-07T03:07:57;13.73;;;10.02;;
76423;SDS011;65257;52.104;4.268;2023-09-07T03:10:23;15.35;;;10.30;;
76423;SDS011;65257;52.104;4.268;2023-09-07T03:12:54;12.63;;;9.23;;
76423;SDS011;65257;52.104;4.268;2023-09-07T03:15:23;15.40;;;10.80;;
76423;SDS011;65257;52.104;4.268;2023-09-07T03:17:48;15.63;;;10.90;;
76423;SDS011;65257;52.104;4.268;2023-09-07T03:20:13;17.75;;;11.50;;
76423;SDS011;65257;52.104;4.268;2023-09-07T03:22:48;15.05;;;10.48;;
76423;SDS011;65257;52.104;4.268;2023-09-07T03:25:14;15.70;;;10.57;;
76423;SDS011;65257;52.104;4.268;2023-09-07T03:27:39;15.68;;;10.18;;
76423;SDS011;65257;52.104;4.268;2023-09-07T03:30:05;14.35;;;10.63;;
76423;SDS011;65257;52.104;4.268;2023-09-07T03:32:32;15.60;;;11.15;;
76423;SDS011;65257;52.104;4.268;2023-09-07T03:34:59;14.00;;;10.25;;
76423;SDS011;65257;52.104;4.268;2023-09-07T03:37:26;15.38;;;11.32;;
76423;SDS011;65257;52.104;4.268;2023-09-07T03:39:55;13.85;;;10.52;;
76423;SDS011;65257;52.104;4.268;2023-09-07T03:42:21;16.48;;;10.95;;
76423;SDS011;65257;52.104;4.268;2023-09-07T03:44:47;16.58;;;9.80;;
76423;SDS011;65257;52.104;4.268;2023-09-07T03:47:13;14.82;;;10.77;;
76423;SDS011;65257;52.104;4.268;2023-09-07T03:49:39;15.48;;;10.70;;
76423;SDS011;65257;52.104;4.268;2023-09-07T03:52:04;14.82;;;10.60;;
76423;SDS011;65257;52.104;4.268;2023-09-07T03:54:36;17.98;;;11.90;;
76423;SDS011;65257;52.104;4.268;2023-09-07T03:57:05;13.93;;;10.82;;
76423;SDS011;65257;52.104;4.268;2023-09-07T03:59:30;14.73;;;10.95;;
76423;SDS011;65257;52.104;4.268;2023-09-07T04:01:56;14.85;;;11.25;;
76423;SDS011;65257;52.104;4.268;2023-09-07T04:04:21;17.48;;;11.38;;
76423;SDS011;65257;52.104;4.268;2023-09-07T04:06:47;15.57;;;9.98;;
76423;SDS011;65257;52.104;4.268;2023-09-07T04:09:13;19.60;;;11.68;;
76423;SDS011;65257;52.104;4.268;2023-09-07T04:11:42;15.48;;;10.65;;
76423;SDS011;65257;52.104;4.268;2023-09-07T04:14:08;19.88;;;12.40;;
76423;SDS011;65257;52.104;4.268;2023-09-07T04:16:33;18.58;;;11.82;;
76423;SDS011;65257;52.104;4.268;2023-09-07T04:18:59;16.70;;;11.15;;
76423;SDS011;65257;52.104;4.268;2023-09-07T04:21:24;15.63;;;10.95;;
76423;SDS011;65257;52.104;4.268;2023-09-07T04:23:49;17.98;;;12.20;;
76423;SDS011;65257;52.104;4.268;2023-09-07T04:26:15;16.98;;;12.68;;
76423;SDS011;65257;52.104;4.268;2023-09-07T04:28:52;16.23;;;10.95;;
76423;SDS011;65257;52.104;4.268;2023-09-07T04:31:18;17.30;;;11.10;;
76423;SDS011;65257;52.104;4.268;2023-09-07T04:33:44;17.48;;;11.73;;
76423;SDS011;65257;52.104;4.268;2023-09-07T04:36:13;18.70;;;11.93;;
76423;SDS011;65257;52.104;4.268;2023-09-07T04:38:40;17.83;;;11.80;;
76423;SDS011;65257;52.104;4.268;2023-09-07T04:41:09;17.38;;;11.38;;
76423;SDS011;65257;52.104;4.268;2023-09-07T04:43:36;19.58;;;12.10;;
76423;SDS011;65257;52.104;4.268;2023-09-07T04:46:03;17.40;;;12.13;;
76423;SDS011;65257;52.104;4.268;2023-09-07T04:48:29;17.20;;;11.82;;
76423;SDS011;65257;52.104;4.268;2023-09-07T04:51:02;17.77;;;12.35;;
76423;SDS011;65257;52.104;4.268;2023-09-07T04:53:31;19.65;;;11.70;;
76423;SDS011;65257;52.104;4.268;2023-09-07T04:55:58;18.42;;;11.45;;
76423;SDS011;65257;52.104;4.268;2023-09-07T04:58:24;16.67;;;11.68;;
76423;SDS011;65257;52.104;4.268;2023-09-07T05:00:51;15.90;;;11.50;;
76423;SDS011;65257;52.104;4.268;2023-09-07T05:03:16;17.38;;;11.55;;
76423;SDS011;65257;52.104;4.268;2023-09-07T05:06:03;18.35;;;10.85;;
76423;SDS011;65257;52.104;4.268;2023-09-07T05:08:31;17.33;;;11.80;;
76423;SDS011;65257;52.104;4.268;2023-09-07T05:10:58;15.82;;;10.90;;
76423;SDS011;65257;52.104;4.268;2023-09-07T05:13:25;19.02;;;11.65;;
76423;SDS011;65257;52.104;4.268;2023-09-07T05:15:54;18.70;;;11.45;;
76423;SDS011;65257;52.104;4.268;2023-09-07T05:18:21;16.15;;;11.25;;
76423;SDS011;65257;52.104;4.268;2023-09-07T05:20:53;17.73;;;11.65;;
76423;SDS011;65257;52.104;4.268;2023-09-07T05:23:22;15.82;;;11.18;;
76423;SDS011;65257;52.104;4.268;2023-09-07T05:25:48;18.98;;;11.77;;
76423;SDS011;65257;52.104;4.268;2023-09-07T05:28:17;18.33;;;12.05;;
76423;SDS011;65257;52.104;4.268;2023-09-07T05:30:43;19.25;;;11.70;;
76423;SDS011;65257;52.104;4.268;2023-09-07T05:33:15;16.15;;;12.02;;
76423;SDS011;65257;52.104;4.268;2023-09-07T05:35:50;16.42;;;12.15;;
76423;SDS011;65257;52.104;4.268;2023-09-07T05:38:15;16.27;;;10.85;;
76423;SDS011;65257;52.104;4.268;2023-09-07T05:40:44;15.80;;;12.30;;
76423;SDS011;65257;52.104;4.268;2023-09-07T05:43:10;17.48;;;12.50;;
76423;SDS011;65257;52.104;4.268;2023-09-07T05:45:40;17.20;;;12.25;;
76423;SDS011;65257;52.104;4.268;2023-09-07T05:50:34;19.27;;;12.10;;
76423;SDS011;65257;52.104;4.268;2023-09-07T05:53:00;16.13;;;12.13;;
76423;SDS011;65257;52.104;4.268;2023-09-07T05:55:26;16.23;;;11.88;;
76423;SDS011;65257;52.104;4.268;2023-09-07T05:57:53;18.75;;;12.75;;
76423;SDS011;65257;52.104;4.268;2023-09-07T06:00:20;15.73;;;12.43;;
76423;SDS011;65257;52.104;4.268;2023-09-07T06:02:49;18.35;;;13.13;;
76423;SDS011;65257;52.104;4.268;2023-09-07T06:05:18;18.98;;;11.10;;
76423;SDS011;65257;52.104;4.268;2023-09-07T06:07:44;18.17;;;12.82;;
76423;SDS011;65257;52.104;4.268;2023-09-07T06:10:10;16.73;;;11.02;;
76423;SDS011;65257;52.104;4.268;2023-09-07T06:12:35;17.35;;;12.40;;
76423;SDS011;65257;52.104;4.268;2023-09-07T06:15:04;19.13;;;11.75;;
76423;SDS011;65257;52.104;4.268;2023-09-07T06:17:30;18.35;;;12.15;;
76423;SDS011;65257;52.104;4.268;2023-09-07T06:19:55;17.88;;;12.95;;
76423;SDS011;65257;52.104;4.268;2023-09-07T06:22:21;18.95;;;11.85;;
76423;SDS011;65257;52.104;4.268;2023-09-07T06:24:47;18.88;;;11.57;;
76423;SDS011;65257;52.104;4.268;2023-09-07T06:27:13;15.52;;;11.90;;
76423;SDS011;65257;52.104;4.268;2023-09-07T06:29:39;15.88;;;11.35;;
76423;SDS011;65257;52.104;4.268;2023-09-07T06:32:10;16.88;;;10.88;;
76423;SDS011;65257;52.104;4.268;2023-09-07T06:34:35;16.02;;;11.23;;
76423;SDS011;65257;52.104;4.268;2023-09-07T06:37:01;15.88;;;11.30;;
76423;SDS011;65257;52.104;4.268;2023-09-07T06:39:30;17.92;;;10.57;;
76423;SDS011;65257;52.104;4.268;2023-09-07T06:41:58;18.48;;;11.45;;
76423;SDS011;65257;52.104;4.268;2023-09-07T06:44:27;14.90;;;10.65;;
76423;SDS011;65257;52.104;4.268;2023-09-07T06:46:52;16.55;;;11.32;;
76423;SDS011;65257;52.104;4.268;2023-09-07T06:49:23;18.90;;;12.20;;
76423;SDS011;65257;52.104;4.268;2023-09-07T06:51:49;15.23;;;10.65;;
76423;SDS011;65257;52.104;4.268;2023-09-07T06:54:21;15.50;;;10.60;;
76423;SDS011;65257;52.104;4.268;2023-09-07T06:56:46;16.88;;;11.75;;
76423;SDS011;65257;52.104;4.268;2023-09-07T06:59:12;17.15;;;11.48;;
76423;SDS011;65257;52.104;4.268;2023-09-07T07:01:38;14.93;;;9.63;;
76423;SDS011;65257;52.104;4.268;2023-09-07T07:04:07;14.00;;;10.48;;
76423;SDS011;65257;52.104;4.268;2023-09-07T07:06:33;14.48;;;10.90;;
76423;SDS011;65257;52.104;4.268;2023-09-07T07:08:59;16.55;;;10.88;;
76423;SDS011;65257;52.104;4.268;2023-09-07T07:11:24;14.77;;;10.32;;
76423;SDS011;65257;52.104;4.268;2023-09-07T07:13:53;13.45;;;10.05;;
76423;SDS011;65257;52.104;4.268;2023-09-07T07:16:18;13.40;;;9.50;;
76423;SDS011;65257;52.104;4.268;2023-09-07T07:18:44;14.05;;;10.10;;
76423;SDS011;65257;52.104;4.268;2023-09-07T07:21:09;13.80;;;8.85;;
76423;SDS011;65257;52.104;4.268;2023-09-07T07:23:39;15.95;;;9.13;;
76423;SDS011;65257;52.104;4.268;2023-09-07T07:26:04;13.80;;;8.25;;
76423;SDS011;65257;52.104;4.268;2023-09-07T07:28:30;14.25;;;8.93;;
76423;SDS011;65257;52.104;4.268;2023-09-07T07:30:56;13.25;;;9.02;;
76423;SDS011;65257;52.104;4.268;2023-09-07T07:33:21;13.15;;;8.50;;
76423;SDS011;65257;52.104;4.268;2023-09-07T07:35:47;13.82;;;8.73;;
76423;SDS011;65257;52.104;4.268;2023-09-07T07:38:12;12.38;;;8.57;;
76423;SDS011;65257;52.104;4.268;2023-09-07T07:40:44;12.10;;;8.05;;
76423;SDS011;65257;52.104;4.268;2023-09-07T07:43:13;11.45;;;8.68;;
76423;SDS011;65257;52.104;4.268;2023-09-07T07:45:38;14.02;;;8.07;;
76423;SDS011;65257;52.104;4.268;2023-09-07T07:48:04;10.65;;;7.78;;
76423;SDS011;65257;52.104;4.268;2023-09-07T07:50:50;10.88;;;7.75;;
76423;SDS011;65257;52.104;4.268;2023-09-07T07:53:19;10.95;;;7.30;;
76423;SDS011;65257;52.104;4.268;2023-09-07T07:55:44;11.90;;;7.72;;
76423;SDS011;65257;52.104;4.268;2023-09-07T07:58:10;10.65;;;7.55;;
76423;SDS011;65257;52.104;4.268;2023-09-07T08:00:35;9.93;;;6.90;;
76423;SDS011;65257;52.104;4.268;2023-09-07T08:03:02;9.23;;;7.05;;
76423;SDS011;65257;52.104;4.268;2023-09-07T08:05:32;10.63;;;7.38;;
76423;SDS011;65257;52.104;4.268;2023-09-07T08:08:02;12.68;;;6.82;;
76423;SDS011;65257;52.104;4.268;2023-09-07T08:10:28;10.38;;;7.63;;
76423;SDS011;65257;52.104;4.268;2023-09-07T08:12:58;10.02;;;7.20;;
76423;SDS011;65257;52.104;4.268;2023-09-07T08:15:23;11.15;;;7.07;;
76423;SDS011;65257;52.104;4.268;2023-09-07T08:17:50;10.25;;;7.18;;
76423;SDS011;65257;52.104;4.268;2023-09-07T08:20:19;9.48;;;6.30;;
76423;SDS011;65257;52.104;4.268;2023-09-07T08:22:45;11.35;;;6.80;;
76423;SDS011;65257;52.104;4.268;2023-09-07T08:25:11;11.27;;;5.82;;
76423;SDS011;65257;52.104;4.268;2023-09-07T08:27:41;10.00;;;6.60;;
76423;SDS011;65257;52.104;4.268;2023-09-07T08:30:14;9.18;;;6.53;;
76423;SDS011;65257;52.104;4.268;2023-09-07T08:32:42;9.90;;;6.13;;
76423;SDS011;65257;52.104;4.268;2023-09-07T08:35:09;9.98;;;6.00;;
76423;SDS011;65257;52.104;4.268;2023-09-07T08:37:38;9.88;;;6.15;;
76423;SDS011;65257;52.104;4.268;2023-09-07T08:40:05;9.35;;;5.80;;
76423;SDS011;65257;52.104;4.268;2023-09-07T08:42:33;8.93;;;5.47;;
76423;SDS011;65257;52.104;4.268;2023-09-07T08:45:01;11.05;;;6.20;;
76423;SDS011;65257;52.104;4.268;2023-09-07T08:47:28;8.70;;;6.10;;
76423;SDS011;65257;52.104;4.268;2023-09-07T08:49:56;10.00;;;5.85;;
76423;SDS011;65257;52.104;4.268;2023-09-07T08:52:22;8.95;;;5.72;;
76423;SDS011;65257;52.104;4.268;2023-09-07T08:54:48;8.00;;;5.47;;
76423;SDS011;65257;52.104;4.268;2023-09-07T08:57:14;9.73;;;6.13;;
76423;SDS011;65257;52.104;4.268;2023-09-07T08:59:40;7.45;;;5.20;;
76423;SDS011;65257;52.104;4.268;2023-09-07T09:02:09;9.75;;;5.00;;
76423;SDS011;65257;52.104;4.268;2023-09-07T09:04:35;8.13;;;4.85;;
76423;SDS011;65257;52.104;4.268;2023-09-07T09:07:02;7.85;;;4.68;;
76423;SDS011;65257;52.104;4.268;2023-09-07T09:09:29;6.43;;;4.25;;
76423;SDS011;65257;52.104;4.268;2023-09-07T09:11:55;6.50;;;4.28;;
76423;SDS011;65257;52.104;4.268;2023-09-07T09:14:31;6.00;;;4.53;;
76423;SDS011;65257;52.104;4.268;2023-09-07T09:16:56;6.95;;;4.07;;
76423;SDS011;65257;52.104;4.268;2023-09-07T09:19:30;7.53;;;4.38;;
76423;SDS011;65257;52.104;4.268;2023-09-07T09:21:59;8.20;;;4.32;;
76423;SDS011;65257;52.104;4.268;2023-09-07T09:24:25;6.28;;;4.07;;
76423;SDS011;65257;52.104;4.268;2023-09-07T09:26:50;5.90;;;3.88;;
76423;SDS011;65257;52.104;4.268;2023-09-07T09:29:16;6.07;;;3.90;;
76423;SDS011;65257;52.104;4.268;2023-09-07T09:31:41;16.58;;;4.20;;
76423;SDS011;65257;52.104;4.268;2023-09-07T09:34:08;6.95;;;4.15;;
76423;SDS011;65257;52.104;4.268;2023-09-07T09:36:34;6.45;;;4.03;;
76423;SDS011;65257;52.104;4.268;2023-09-07T09:39:00;7.90;;;4.90;;
76423;SDS011;65257;52.104;4.268;2023-09-07T09:41:26;5.97;;;4.00;;
76423;SDS011;65257;52.104;4.268;2023-09-07T09:43:52;6.55;;;3.70;;
76423;SDS011;65257;52.104;4.268;2023-09-07T09:46:18;5.85;;;3.92;;
76423;SDS011;65257;52.104;4.268;2023-09-07T09:48:44;7.22;;;4.15;;
76423;SDS011;65257;52.104;4.268;2023-09-07T09:51:10;8.77;;;4.70;;
76423;SDS011;65257;52.104;4.268;2023-09-07T09:53:36;9.20;;;4.68;;
76423;SDS011;65257;52.104;4.268;2023-09-07T09:56:02;6.93;;;4.80;;
76423;SDS011;65257;52.104;4.268;2023-09-07T09:58:30;7.95;;;4.50;;
76423;SDS011;65257;52.104;4.268;2023-09-07T10:00:58;7.13;;;4.80;;
76423;SDS011;65257;52.104;4.268;2023-09-07T10:03:28;7.20;;;4.50;;
76423;SDS011;65257;52.104;4.268;2023-09-07T10:06:08;6.97;;;4.60;;
76423;SDS011;65257;52.104;4.268;2023-09-07T10:08:34;8.15;;;4.40;;
76423;SDS011;65257;52.104;4.268;2023-09-07T10:11:00;5.72;;;4.47;;
76423;SDS011;65257;52.104;4.268;2023-09-07T10:13:31;6.30;;;4.40;;
76423;SDS011;65257;52.104;4.268;2023-09-07T10:16:07;6.82;;;5.22;;
76423;SDS011;65257;52.104;4.268;2023-09-07T10:18:34;8.88;;;5.15;;
76423;SDS011;65257;52.104;4.268;2023-09-07T10:21:00;9.38;;;5.13;;
76423;SDS011;65257;52.104;4.268;2023-09-07T10:26:19;7.85;;;4.22;;
76423;SDS011;65257;52.104;4.268;2023-09-07T10:28:46;7.88;;;4.57;;
76423;SDS011;65257;52.104;4.268;2023-09-07T10:31:16;6.40;;;4.43;;
76423;SDS011;65257;52.104;4.268;2023-09-07T10:33:45;6.82;;;4.05;;
76423;SDS011;65257;52.104;4.268;2023-09-07T10:36:35;8.60;;;5.22;;
76423;SDS011;65257;52.104;4.268;2023-09-07T10:39:02;7.68;;;4.80;;
76423;SDS011;65257;52.104;4.268;2023-09-07T10:42:02;7.07;;;4.55;;
76423;SDS011;65257;52.104;4.268;2023-09-07T10:44:25;9.65;;;4.53;;
76423;SDS011;65257;52.104;4.268;2023-09-07T10:46:51;6.63;;;4.43;;
76423;SDS011;65257;52.104;4.268;2023-09-07T10:49:17;8.52;;;4.25;;
76423;SDS011;65257;52.104;4.268;2023-09-07T10:51:44;7.75;;;4.28;;
76423;SDS011;65257;52.104;4.268;2023-09-07T10:54:21;6.28;;;3.85;;
76423;SDS011;65257;52.104;4.268;2023-09-07T10:56:48;7.25;;;3.88;;
76423;SDS011;65257;52.104;4.268;2023-09-07T10:59:15;6.40;;;3.72;;
76423;SDS011;65257;52.104;4.268;2023-09-07T11:01:43;5.50;;;3.63;;
76423;SDS011;65257;52.104;4.268;2023-09-07T11:04:09;6.40;;;3.53;;
76423;SDS011;65257;52.104;4.268;2023-09-07T11:06:36;5.75;;;3.50;;
76423;SDS011;65257;52.104;4.268;2023-09-07T11:09:06;5.95;;;3.65;;
76423;SDS011;65257;52.104;4.268;2023-09-07T11:11:35;8.30;;;3.53;;
76423;SDS011;65257;52.104;4.268;2023-09-07T11:14:04;6.78;;;3.80;;
76423;SDS011;65257;52.104;4.268;2023-09-07T11:16:34;5.57;;;3.65;;
76423;SDS011;65257;52.104;4.268;2023-09-07T11:19:17;5.40;;;3.58;;
76423;SDS011;65257;52.104;4.268;2023-09-07T11:21:52;4.72;;;3.30;;
76423;SDS011;65257;52.104;4.268;2023-09-07T11:24:19;5.65;;;3.25;;
76423;SDS011;65257;52.104;4.268;2023-09-07T11:26:45;5.97;;;3.70;;
76423;SDS011;65257;52.104;4.268;2023-09-07T11:29:18;5.70;;;3.65;;
76423;SDS011;65257;52.104;4.268;2023-09-07T11:31:46;5.53;;;3.40;;
76423;SDS011;65257;52.104;4.268;2023-09-07T11:34:17;10.85;;;3.88;;
76423;SDS011;65257;52.104;4.268;2023-09-07T11:36:43;5.75;;;3.30;;
76423;SDS011;65257;52.104;4.268;2023-09-07T11:39:08;5.47;;;3.05;;
76423;SDS011;65257;52.104;4.268;2023-09-07T11:41:43;5.63;;;3.17;;
76423;SDS011;65257;52.104;4.268;2023-09-07T11:44:10;5.95;;;3.47;;
76423;SDS011;65257;52.104;4.268;2023-09-07T11:46:44;7.13;;;3.70;;
76423;SDS011;65257;52.104;4.268;2023-09-07T11:49:09;5.03;;;3.22;;
76423;SDS011;65257;52.104;4.268;2023-09-07T11:51:41;7.50;;;3.50;;
76423;SDS011;65257;52.104;4.268;2023-09-07T11:54:06;6.20;;;3.95;;
76423;SDS011;65257;52.104;4.268;2023-09-07T11:56:34;5.63;;;3.20;;
76423;SDS011;65257;52.104;4.268;2023-09-07T11:59:04;8.32;;;3.75;;
76423;SDS011;65257;52.104;4.268;2023-09-07T12:01:30;5.63;;;2.95;;
76423;SDS011;65257;52.104;4.268;2023-09-07T12:03:55;6.03;;;3.10;;
76423;SDS011;65257;52.104;4.268;2023-09-07T12:06:21;4.88;;;2.95;;
76423;SDS011;65257;52.104;4.268;2023-09-07T12:09:04;5.65;;;2.70;;
76423;SDS011;65257;52.104;4.268;2023-09-07T12:11:37;4.82;;;2.90;;
76423;SDS011;65257;52.104;4.268;2023-09-07T12:14:03;5.20;;;2.97;;
76423;SDS011;65257;52.104;4.268;2023-09-07T12:16:29;17.45;;;4.03;;
76423;SDS011;65257;52.104;4.268;2023-09-07T12:18:55;4.75;;;2.95;;
76423;SDS011;65257;52.104;4.268;2023-09-07T12:21:21;4.45;;;2.80;;
76423;SDS011;65257;52.104;4.268;2023-09-07T12:23:49;6.38;;;3.40;;
76423;SDS011;65257;52.104;4.268;2023-09-07T12:26:18;4.60;;;3.15;;
76423;SDS011;65257;52.104;4.268;2023-09-07T12:28:45;5.57;;;3.35;;
76423;SDS011;65257;52.104;4.268;2023-09-07T12:31:17;8.05;;;3.60;;
76423;SDS011;65257;52.104;4.268;2023-09-07T12:33:42;5.90;;;2.70;;
76423;SDS011;65257;52.104;4.268;2023-09-07T12:36:08;4.60;;;3.25;;
76423;SDS011;65257;52.104;4.268;2023-09-07T12:38:35;4.40;;;3.05;;
76423;SDS011;65257;52.104;4.268;2023-09-07T12:41:00;7.13;;;3.35;;
76423;SDS011;65257;52.104;4.268;2023-09-07T12:43:26;5.10;;;2.95;;
76423;SDS011;65257;52.104;4.268;2023-09-07T12:45:57;7.30;;;3.15;;
76423;SDS011;65257;52.104;4.268;2023-09-07T12:48:24;8.48;;;3.28;;
76423;SDS011;65257;52.104;4.268;2023-09-07T12:50:49;5.63;;;3.17;;
76423;SDS011;65257;52.104;4.268;2023-09-07T12:53:18;5.85;;;3.20;;
76423;SDS011;65257;52.104;4.268;2023-09-07T12:55:44;8.13;;;3.40;;
76423;SDS011;65257;52.104;4.268;2023-09-07T12:58:17;5.78;;;3.20;;
76423;SDS011;65257;52.104;4.268;2023-09-07T13:00:43;4.50;;;2.53;;
76423;SDS011;65257;52.104;4.268;2023-09-07T13:03:12;6.47;;;3.05;;
76423;SDS011;65257;52.104;4.268;2023-09-07T13:05:37;5.30;;;3.17;;
76423;SDS011;65257;52.104;4.268;2023-09-07T13:08:06;4.43;;;3.00;;
76423;SDS011;65257;52.104;4.268;2023-09-07T13:10:32;5.28;;;3.22;;
76423;SDS011;65257;52.104;4.268;2023-09-07T13:12:57;4.93;;;3.17;;
76423;SDS011;65257;52.104;4.268;2023-09-07T13:15:27;4.15;;;2.83;;
76423;SDS011;65257;52.104;4.268;2023-09-07T13:17:57;4.65;;;2.85;;
76423;SDS011;65257;52.104;4.268;2023-09-07T13:20:22;5.38;;;3.13;;
76423;SDS011;65257;52.104;4.268;2023-09-07T13:22:48;4.18;;;2.70;;
76423;SDS011;65257;52.104;4.268;2023-09-07T13:25:17;4.57;;;2.83;;
76423;SDS011;65257;52.104;4.268;2023-09-07T13:27:42;4.95;;;3.30;;
76423;SDS011;65257;52.104;4.268;2023-09-07T13:30:14;6.88;;;3.00;;
76423;SDS011;65257;52.104;4.268;2023-09-07T13:32:40;5.03;;;2.90;;
76423;SDS011;65257;52.104;4.268;2023-09-07T13:35:05;6.70;;;3.05;;
76423;SDS011;65257;52.104;4.268;2023-09-07T13:37:31;5.60;;;2.95;;
76423;SDS011;65257;52.104;4.268;2023-09-07T13:39:56;4.47;;;3.03;;
76423;SDS011;65257;52.104;4.268;2023-09-07T13:42:25;5.38;;;3.05;;
76423;SDS011;65257;52.104;4.268;2023-09-07T13:44:59;7.18;;;3.15;;
76423;SDS011;65257;52.104;4.268;2023-09-07T13:47:24;4.50;;;2.70;;
76423;SDS011;65257;52.104;4.268;2023-09-07T13:49:50;5.50;;;2.88;;
76423;SDS011;65257;52.104;4.268;2023-09-07T13:52:23;5.43;;;2.80;;
76423;SDS011;65257;52.104;4.268;2023-09-07T13:54:51;4.28;;;2.60;;
76423;SDS011;65257;52.104;4.268;2023-09-07T13:57:20;4.80;;;3.10;;
76423;SDS011;65257;52.104;4.268;2023-09-07T13:59:49;8.65;;;3.30;;
76423;SDS011;65257;52.104;4.268;2023-09-07T14:02:14;5.82;;;3.33;;
76423;SDS011;65257;52.104;4.268;2023-09-07T14:04:43;4.22;;;2.80;;
76423;SDS011;65257;52.104;4.268;2023-09-07T14:07:08;9.88;;;3.03;;
76423;SDS011;65257;52.104;4.268;2023-09-07T14:09:33;4.78;;;3.25;;
76423;SDS011;65257;52.104;4.268;2023-09-07T14:11:59;5.13;;;3.25;;
76423;SDS011;65257;52.104;4.268;2023-09-07T14:14:24;6.00;;;3.25;;
76423;SDS011;65257;52.104;4.268;2023-09-07T14:16:53;5.75;;;2.97;;
76423;SDS011;65257;52.104;4.268;2023-09-07T14:19:24;5.32;;;2.95;;
76423;SDS011;65257;52.104;4.268;2023-09-07T14:24:35;3.70;;;2.53;;
76423;SDS011;65257;52.104;4.268;2023-09-07T14:27:07;6.10;;;3.47;;
76423;SDS011;65257;52.104;4.268;2023-09-07T14:29:34;4.32;;;2.63;;
76423;SDS011;65257;52.104;4.268;2023-09-07T14:32:01;4.10;;;2.83;;
76423;SDS011;65257;52.104;4.268;2023-09-07T14:34:26;5.40;;;3.10;;
76423;SDS011;65257;52.104;4.268;2023-09-07T14:36:55;6.47;;;3.65;;
76423;SDS011;65257;52.104;4.268;2023-09-07T14:39:21;4.82;;;3.08;;
76423;SDS011;65257;52.104;4.268;2023-09-07T14:41:49;6.13;;;3.25;;
76423;SDS011;65257;52.104;4.268;2023-09-07T14:44:15;4.75;;;3.40;;
76423;SDS011;65257;52.104;4.268;2023-09-07T14:46:41;7.05;;;3.17;;